createdAt,value
2023-03-12T00:00:15.938Z,187.32
2023-03-12T00:01:16.010Z,187.52
2023-03-12T00:02:16.094Z,186.50
2023-03-12T00:03:16.091Z,183.61
2023-03-12T00:04:16.158Z,181.25
2023-03-12T00:05:16.190Z,181.49
2023-03-12T00:06:16.280Z,184.63
2023-03-12T00:07:16.302Z,182.73
2023-03-12T00:08:16.360Z,183.05
2023-03-12T00:09:16.517Z,186.44
2023-03-12T00:10:16.516Z,187.82
2023-03-12T00:11:16.567Z,186.15
2023-03-12T00:14:16.732Z,181.92
2023-03-12T00:15:16.768Z,185.62
2023-03-12T00:16:16.899Z,184.39
2023-03-12T00:17:16.904Z,185.21
2023-03-12T00:18:16.967Z,181.41
2023-03-12T00:19:17.025Z,183.57
2023-03-12T00:20:17.100Z,182.20
2023-03-12T00:21:17.124Z,183.88
2023-03-12T00:22:17.212Z,185.57
2023-03-12T00:23:17.266Z,181.22
2023-03-12T00:24:17.322Z,181.64
2023-03-12T00:25:17.378Z,182.07
2023-03-12T00:26:17.454Z,179.60
2023-03-12T00:27:17.470Z,179.73
2023-03-12T00:28:17.539Z,181.19
2023-03-12T00:29:17.625Z,182.38
2023-03-12T00:30:17.679Z,184.99
2023-03-12T00:31:17.799Z,185.39
2023-03-12T00:32:17.834Z,182.90
2023-03-12T00:33:17.827Z,182.01
2023-03-12T00:34:17.905Z,182.63
2023-03-12T00:35:17.959Z,179.88
2023-03-12T00:36:18.033Z,185.47
2023-03-12T00:37:18.112Z,185.89
2023-03-12T00:38:18.172Z,183.44
2023-03-12T00:39:18.240Z,182.24
2023-03-12T00:40:18.287Z,181.87
2023-03-12T00:41:18.350Z,180.44
2023-03-12T00:42:18.395Z,183.18
2023-03-12T00:43:18.464Z,185.48
2023-03-12T00:44:18.497Z,185.01
2023-03-12T00:45:18.593Z,182.50
2023-03-12T00:46:18.725Z,184.93
2023-03-12T00:47:18.726Z,181.41
2023-03-12T00:48:18.788Z,183.13
2023-03-12T00:49:18.855Z,185.30
2023-03-12T00:50:18.923Z,184.74
2023-03-12T00:51:18.983Z,183.67
2023-03-12T00:52:19.006Z,184.00
2023-03-12T00:53:19.087Z,185.05
2023-03-12T00:54:19.136Z,180.37
2023-03-12T00:55:19.198Z,182.35
2023-03-12T00:56:19.280Z,178.71
2023-03-12T00:57:19.331Z,183.77
2023-03-12T00:58:19.389Z,181.92
2023-03-12T00:59:19.466Z,184.69
2023-03-12T01:01:19.617Z,182.65
2023-03-12T01:02:19.631Z,185.26
2023-03-12T01:03:19.707Z,184.80
2023-03-12T01:04:19.818Z,183.70
2023-03-12T01:05:19.824Z,184.36
2023-03-12T01:06:19.894Z,183.18
2023-03-12T01:07:19.963Z,184.91
2023-03-12T01:08:20.016Z,184.42
2023-03-12T01:09:20.060Z,184.75
2023-03-12T01:10:20.110Z,185.27
2023-03-12T01:12:20.244Z,186.81
2023-03-12T01:13:20.346Z,183.28
2023-03-12T01:14:20.385Z,186.33
2023-03-12T01:15:20.437Z,183.06
2023-03-12T01:20:20.732Z,185.64
2023-03-12T01:21:20.810Z,183.14
2023-03-12T01:26:21.117Z,185.81
2023-03-12T01:55:22.844Z,184.75
2023-03-12T01:56:22.931Z,183.12
2023-03-12T01:57:22.973Z,180.85
2023-03-12T01:58:23.047Z,178.09
2023-03-12T01:59:23.087Z,179.46
2023-03-12T02:00:23.150Z,176.16
2023-03-12T02:01:23.346Z,181.87
2023-03-12T02:02:23.263Z,180.10
2023-03-12T02:03:23.338Z,181.15
2023-03-12T02:04:23.484Z,181.66
2023-03-12T02:05:23.443Z,179.88
2023-03-12T02:06:23.539Z,177.50
2023-03-12T02:07:23.584Z,177.74
2023-03-12T02:08:23.648Z,179.11
2023-03-12T02:09:23.686Z,177.49
2023-03-12T02:10:23.725Z,183.32
2023-03-12T02:11:23.827Z,180.40
2023-03-12T02:12:23.888Z,180.25
2023-03-12T02:13:23.966Z,179.58
2023-03-12T02:14:24.027Z,178.14
2023-03-12T02:15:24.060Z,177.18
2023-03-12T02:16:24.197Z,176.82
2023-03-12T02:17:24.178Z,174.95
2023-03-12T02:18:24.256Z,178.77
2023-03-12T02:19:24.294Z,176.95
2023-03-12T02:20:24.354Z,181.06
2023-03-12T02:21:24.444Z,176.96
2023-03-12T02:22:24.469Z,178.62
2023-03-12T02:23:24.517Z,173.34
2023-03-12T02:24:24.585Z,176.00
2023-03-12T02:25:24.637Z,172.78
2023-03-12T02:26:24.747Z,175.27
2023-03-12T02:27:24.810Z,175.68
2023-03-12T02:28:24.855Z,173.83
2023-03-12T02:29:24.889Z,176.08
2023-03-12T02:30:24.948Z,173.62
2023-03-12T02:31:25.071Z,177.87
2023-03-12T02:32:25.078Z,172.53
2023-03-12T02:34:25.198Z,174.06
2023-03-12T02:35:25.237Z,175.50
2023-03-12T02:36:25.306Z,170.27
2023-03-12T02:37:25.355Z,172.15
2023-03-12T02:38:25.428Z,172.07
2023-03-12T02:39:25.477Z,169.03
2023-03-12T02:40:25.564Z,169.16
2023-03-12T02:41:25.610Z,172.60
2023-03-12T02:42:25.668Z,174.57
2023-03-12T02:43:25.710Z,168.29
2023-03-12T02:44:25.788Z,172.75
2023-03-12T02:45:25.864Z,169.73
2023-03-12T02:46:26.012Z,173.11
2023-03-12T02:47:26.528Z,174.20
2023-03-12T02:48:26.038Z,172.32
2023-03-12T02:49:26.128Z,175.42
2023-03-12T02:50:26.161Z,177.24
2023-03-12T02:51:26.209Z,177.93
2023-03-12T02:52:26.289Z,176.31
2023-03-12T02:53:26.365Z,175.03
2023-03-12T02:54:26.429Z,177.13
2023-03-12T02:55:26.470Z,174.94
2023-03-12T02:56:26.535Z,172.50
2023-03-12T02:57:26.659Z,172.04
2023-03-12T02:58:26.627Z,173.23
2023-03-12T02:59:26.911Z,174.59
2023-03-12T03:00:26.779Z,171.62
2023-03-12T03:29:28.454Z,173.42
2023-03-12T03:30:28.474Z,172.95
2023-03-12T03:44:29.278Z,175.40
2023-03-12T03:45:29.334Z,176.98
2023-03-12T03:46:29.456Z,174.08
2023-03-12T03:47:29.453Z,174.07
2023-03-12T03:49:29.569Z,173.87
2023-03-12T03:50:29.638Z,177.37
2023-03-12T03:51:29.704Z,170.65
2023-03-12T03:52:29.756Z,173.14
2023-03-12T03:53:29.815Z,173.41
2023-03-12T03:55:29.918Z,176.81
2023-03-12T03:56:30.001Z,177.60
2023-03-12T03:57:30.035Z,172.01
2023-03-12T03:58:30.096Z,171.32
2023-03-12T03:59:30.147Z,170.40
2023-03-12T04:00:30.209Z,174.70
2023-03-12T04:01:30.262Z,174.32
2023-03-12T04:02:30.332Z,173.74
2023-03-12T04:03:30.472Z,174.19
2023-03-12T04:04:30.407Z,170.90
2023-03-12T04:05:30.520Z,173.12
2023-03-12T04:06:30.537Z,174.01
2023-03-12T04:07:30.581Z,172.56
2023-03-12T04:08:30.622Z,174.24
2023-03-12T04:09:30.680Z,171.40
2023-03-12T04:10:30.747Z,171.15
2023-03-12T04:11:30.778Z,172.88
2023-03-12T04:12:30.839Z,171.01
2023-03-12T04:13:30.919Z,173.98
2023-03-12T04:14:30.976Z,173.10
2023-03-12T04:15:31.004Z,174.92
2023-03-12T04:16:31.105Z,175.69
2023-03-12T04:17:31.127Z,174.76
2023-03-12T04:18:31.227Z,172.81
2023-03-12T04:19:31.303Z,173.58
2023-03-12T04:20:31.320Z,174.08
2023-03-12T04:21:31.396Z,173.70
2023-03-12T04:22:31.441Z,172.78
2023-03-12T04:23:31.504Z,174.36
2023-03-12T04:24:31.548Z,176.51
2023-03-12T04:26:31.636Z,173.59
2023-03-12T04:27:31.701Z,175.18
2023-03-12T04:28:31.730Z,173.36
2023-03-12T04:29:31.772Z,172.57
2023-03-12T04:30:31.847Z,171.14
2023-03-12T04:31:31.955Z,174.00
2023-03-12T04:32:31.998Z,174.84
2023-03-12T04:33:32.021Z,172.57
2023-03-12T04:34:32.085Z,172.61
2023-03-12T04:35:32.165Z,173.39
2023-03-12T04:36:32.176Z,174.04
2023-03-12T04:37:32.241Z,174.16
2023-03-12T04:38:32.322Z,175.45
2023-03-12T04:39:32.437Z,175.39
2023-03-12T04:40:32.432Z,172.55
2023-03-12T04:41:32.520Z,174.92
2023-03-12T04:42:32.555Z,173.87
2023-03-12T04:43:32.624Z,174.48
2023-03-12T04:44:32.647Z,173.37
2023-03-12T04:45:32.710Z,171.39
2023-03-12T04:46:32.861Z,173.30
2023-03-12T04:47:32.859Z,172.64
2023-03-12T04:48:33.788Z,172.83
2023-03-12T04:49:32.991Z,169.86
2023-03-12T04:50:33.016Z,176.02
2023-03-12T04:51:33.101Z,172.91
2023-03-12T04:52:33.126Z,173.68
2023-03-12T04:53:33.232Z,169.63
2023-03-12T04:54:33.270Z,170.24
2023-03-12T04:55:33.324Z,171.73
2023-03-12T04:56:33.369Z,172.29
2023-03-12T04:57:33.409Z,169.51
2023-03-12T04:58:33.487Z,170.29
2023-03-12T04:59:33.548Z,171.79
2023-03-12T05:00:33.591Z,173.38
2023-03-12T05:01:33.648Z,174.04
2023-03-12T05:02:33.797Z,175.02
2023-03-12T05:03:33.895Z,174.21
2023-03-12T05:04:33.911Z,172.69
2023-03-12T05:05:33.872Z,174.80
2023-03-12T05:06:33.954Z,174.74
2023-03-12T05:07:34.032Z,172.98
2023-03-12T05:08:34.072Z,172.87
2023-03-12T05:09:34.128Z,174.70
2023-03-12T05:10:34.201Z,172.74
2023-03-12T05:11:34.260Z,172.83
2023-03-12T05:12:34.312Z,173.61
2023-03-12T05:13:34.339Z,172.75
2023-03-12T05:14:34.390Z,177.63
2023-03-12T05:15:34.482Z,175.60
2023-03-12T05:16:34.595Z,176.92
2023-03-12T05:17:34.596Z,177.81
2023-03-12T05:18:34.653Z,174.83
2023-03-12T05:19:34.712Z,174.18
2023-03-12T05:20:34.739Z,172.67
2023-03-12T05:21:34.837Z,176.78
2023-03-12T05:22:34.850Z,175.53
2023-03-12T05:23:34.934Z,171.75
2023-03-12T05:24:35.004Z,173.11
2023-03-12T05:25:35.068Z,174.59
2023-03-12T05:26:35.153Z,176.46
2023-03-12T05:27:35.204Z,176.70
2023-03-12T05:28:35.232Z,176.70
2023-03-12T05:29:35.291Z,175.98
2023-03-12T05:30:35.360Z,178.25
2023-03-12T05:31:35.638Z,177.45
2023-03-12T05:32:35.527Z,176.35
2023-03-12T05:33:35.542Z,173.98
2023-03-12T05:34:35.574Z,174.52
2023-03-12T05:35:35.667Z,176.57
2023-03-12T05:36:35.709Z,177.23
2023-03-12T05:37:35.781Z,175.69
2023-03-12T05:38:35.809Z,175.07
2023-03-12T05:39:35.898Z,177.83
2023-03-12T05:40:35.931Z,176.67
2023-03-12T05:56:36.851Z,178.29
2023-03-12T05:57:36.926Z,178.42
2023-03-12T05:58:36.995Z,169.73
2023-03-12T05:59:37.016Z,175.43
2023-03-12T06:00:37.105Z,175.36
2023-03-12T06:01:37.181Z,176.17
2023-03-12T06:02:37.294Z,176.89
2023-03-12T06:03:37.343Z,176.77
2023-03-12T06:04:37.287Z,179.84
2023-03-12T06:05:37.356Z,181.18
2023-03-12T06:09:37.563Z,176.80
2023-03-12T06:10:37.603Z,176.92
2023-03-12T06:39:39.266Z,177.53
2023-03-12T06:40:39.321Z,181.26
2023-03-12T06:42:39.428Z,176.88
2023-03-12T06:43:39.471Z,176.80
2023-03-12T06:45:39.579Z,178.03
2023-03-12T06:46:39.693Z,176.83
2023-03-12T06:47:39.663Z,176.54
2023-03-12T06:48:39.739Z,178.02
2023-03-12T06:49:39.781Z,175.79
2023-03-12T06:50:39.893Z,174.41
2023-03-12T06:51:39.893Z,175.88
2023-03-12T06:52:39.949Z,173.75
2023-03-12T06:55:40.132Z,176.55
2023-03-12T06:56:40.202Z,175.51
2023-03-12T06:57:40.224Z,173.10
2023-03-12T06:58:40.291Z,171.01
2023-03-12T06:59:40.331Z,174.10
2023-03-12T07:07:40.746Z,170.54
2023-03-12T07:08:40.825Z,168.83
2023-03-12T07:09:40.861Z,172.33
2023-03-12T07:10:40.924Z,174.49
2023-03-12T07:11:40.988Z,171.87
2023-03-12T07:12:41.054Z,171.64
2023-03-12T07:13:41.111Z,171.62
2023-03-12T07:14:41.136Z,172.45
2023-03-12T07:15:41.212Z,171.58
2023-03-12T07:24:41.668Z,172.85
2023-03-12T07:25:41.692Z,170.70
2023-03-12T07:26:41.796Z,170.07
2023-03-12T07:27:41.834Z,172.67
2023-03-12T07:28:41.874Z,171.93
2023-03-12T07:29:41.919Z,170.73
2023-03-12T07:30:41.993Z,167.93
2023-03-12T07:31:42.154Z,171.81
2023-03-12T07:32:42.135Z,172.07
2023-03-12T07:33:42.291Z,173.09
2023-03-12T07:34:42.222Z,173.53
2023-03-12T07:35:42.454Z,170.98
2023-03-12T07:36:42.506Z,169.64
2023-03-12T07:37:42.402Z,175.23
2023-03-12T07:38:42.465Z,175.45
2023-03-12T07:39:42.501Z,174.41
2023-03-12T07:40:42.592Z,174.06
2023-03-12T07:41:42.621Z,175.80
2023-03-12T07:42:42.664Z,171.12
2023-03-12T07:43:42.763Z,174.56
2023-03-12T07:44:42.770Z,170.89
2023-03-12T07:45:42.906Z,172.04
2023-03-12T07:46:42.994Z,173.14
2023-03-12T07:47:43.032Z,173.26
2023-03-12T07:48:44.373Z,172.81
2023-03-12T07:49:43.098Z,172.29
2023-03-12T07:50:43.122Z,174.50
2023-03-12T07:51:43.210Z,171.30
2023-03-12T07:52:43.274Z,174.13
2023-03-12T07:53:43.307Z,172.33
2023-03-12T07:54:43.432Z,172.97
2023-03-12T07:55:43.566Z,172.87
2023-03-12T07:56:43.545Z,175.03
2023-03-12T07:57:43.601Z,175.02
2023-03-12T07:58:43.746Z,172.67
2023-03-12T07:59:44.361Z,171.83
2023-03-12T08:00:44.411Z,173.06
2023-03-12T08:01:46.255Z,173.35
2023-03-12T08:02:44.089Z,175.13
2023-03-12T08:03:44.210Z,175.56
2023-03-12T08:04:44.321Z,172.34
2023-03-12T08:05:44.199Z,171.69
2023-03-12T08:06:44.579Z,173.85
2023-03-12T08:07:44.250Z,173.62
2023-03-12T08:08:44.356Z,171.91
2023-03-12T08:09:44.461Z,174.10
2023-03-12T08:10:44.446Z,173.00
2023-03-12T08:11:44.760Z,174.23
2023-03-12T08:12:44.600Z,176.99
2023-03-12T08:13:44.637Z,178.01
2023-03-12T08:14:45.247Z,172.93
2023-03-12T08:15:44.982Z,175.28
2023-03-12T08:16:44.859Z,174.96
2023-03-12T08:17:45.334Z,171.73
2023-03-12T08:18:45.366Z,175.11
2023-03-12T08:19:44.999Z,173.80
2023-03-12T08:20:45.304Z,172.23
2023-03-12T08:21:45.288Z,175.16
2023-03-12T08:32:45.757Z,177.77
2023-03-12T10:11:51.669Z,167.56
2023-03-12T10:12:51.744Z,167.53
2023-03-12T10:13:51.792Z,167.47
2023-03-12T10:14:51.909Z,168.25
2023-03-12T10:15:51.986Z,166.98
2023-03-12T10:16:51.985Z,170.32
2023-03-12T13:00:01.660Z,166.38
2023-03-12T13:01:01.732Z,164.30
2023-03-12T13:02:01.754Z,160.80
2023-03-12T13:03:01.793Z,161.53
2023-03-12T13:04:01.916Z,163.27
2023-03-12T13:05:01.956Z,163.76
2023-03-12T13:06:01.994Z,164.61
2023-03-12T13:07:02.058Z,161.03
2023-03-12T13:08:02.122Z,163.94
2023-03-12T13:09:02.224Z,164.47
2023-03-12T13:10:02.241Z,165.86
2023-03-12T13:11:16.226Z,164.56
2023-03-12T13:12:03.282Z,164.87
2023-03-12T13:13:02.281Z,164.64
2023-03-12T13:14:02.253Z,164.80
2023-03-12T13:15:02.293Z,166.33
2023-03-12T13:16:02.274Z,168.16
2023-03-12T13:17:02.277Z,167.37
2023-03-12T13:18:02.262Z,168.76
2023-03-12T13:19:02.232Z,166.15
2023-03-12T13:53:04.187Z,170.09
2023-03-12T13:54:04.232Z,168.90
2023-03-12T13:55:04.310Z,169.55
2023-03-12T15:56:11.661Z,177.35
2023-03-12T15:57:11.730Z,177.33
2023-03-12T15:58:11.767Z,178.36
2023-03-12T15:59:11.851Z,175.97
2023-03-12T16:00:11.906Z,174.35
2023-03-12T16:01:12.136Z,172.68
2023-03-12T16:02:12.106Z,176.53
2023-03-12T16:03:12.070Z,175.52
2023-03-12T16:04:12.175Z,176.28
2023-03-12T16:05:12.206Z,174.07
2023-03-12T16:06:12.280Z,172.25
2023-03-12T16:07:12.339Z,174.14
2023-03-12T16:08:12.404Z,175.01
2023-03-12T16:09:12.438Z,174.03
2023-03-12T16:10:12.506Z,176.46
2023-03-12T16:11:12.557Z,176.22
2023-03-12T16:12:12.619Z,173.21
2023-03-12T16:13:12.647Z,163.33
2023-03-12T16:14:12.736Z,163.36
2023-03-12T16:15:12.782Z,163.56
2023-03-12T16:16:12.939Z,161.84
2023-03-12T16:17:12.894Z,162.18
2023-03-12T16:18:12.990Z,167.95
2023-03-12T16:19:13.108Z,166.09
2023-03-12T16:20:13.090Z,166.06
2023-03-12T16:21:13.145Z,163.08
2023-03-12T16:22:13.207Z,163.46
2023-03-12T18:45:21.673Z,191.67
2023-03-12T18:46:21.769Z,192.64
2023-03-12T18:47:21.811Z,191.33
2023-03-12T18:48:21.891Z,189.23
2023-03-12T18:49:21.945Z,193.24
2023-03-12T18:50:22.013Z,190.90
2023-03-12T18:51:22.059Z,192.26
2023-03-12T18:52:22.160Z,191.18
2023-03-12T18:53:22.181Z,190.91
2023-03-12T18:54:24.504Z,192.79
2023-03-12T18:55:22.635Z,194.05
2023-03-12T18:56:22.416Z,194.46
2023-03-12T18:57:22.443Z,193.44
2023-03-12T18:58:22.537Z,192.41
2023-03-12T18:59:22.574Z,192.65
2023-03-12T19:00:22.642Z,191.02
2023-03-12T19:01:22.733Z,191.15
2023-03-12T19:02:22.769Z,196.20
2023-03-12T19:03:22.927Z,196.34
2023-03-12T19:04:22.904Z,193.23
2023-03-12T19:05:22.918Z,191.84
2023-03-12T19:06:22.984Z,191.90
2023-03-12T19:07:23.022Z,195.07
2023-03-12T19:08:23.102Z,197.37
2023-03-12T19:09:23.157Z,191.14
2023-03-12T19:10:23.258Z,193.68
2023-03-12T19:11:23.316Z,196.11
2023-03-12T19:12:23.383Z,192.87
2023-03-12T19:13:23.427Z,195.44
2023-03-12T19:14:23.465Z,196.08
2023-03-12T19:15:23.515Z,195.48
2023-03-12T19:16:23.608Z,193.78
2023-03-12T19:17:23.641Z,195.83
2023-03-12T19:18:23.699Z,194.79
2023-03-12T19:19:23.758Z,193.69
2023-03-12T19:20:23.855Z,195.42
2023-03-12T19:21:23.921Z,194.09
2023-03-12T19:22:23.951Z,194.82
2023-03-12T19:23:24.016Z,195.68
2023-03-12T19:24:24.041Z,195.33
2023-03-12T19:25:24.130Z,199.31
2023-03-12T19:26:24.183Z,197.47
2023-03-12T19:27:24.244Z,190.80
2023-03-12T19:28:24.306Z,191.25
2023-03-12T19:29:24.367Z,190.96
2023-03-12T19:30:24.438Z,193.01
2023-03-12T19:31:24.509Z,194.54
2023-03-12T19:32:27.731Z,199.10
2023-03-12T19:33:25.535Z,199.18
2023-03-12T19:34:24.507Z,199.17
2023-03-12T19:35:24.566Z,193.61
2023-03-12T19:36:24.509Z,198.22
2023-03-12T19:37:24.518Z,196.60
2023-03-12T19:38:24.507Z,195.35
2023-03-12T19:39:24.487Z,193.34
2023-03-12T19:40:24.496Z,197.09
2023-03-12T19:41:24.563Z,195.31
2023-03-12T19:42:24.608Z,194.73
2023-03-12T19:43:24.708Z,195.92
2023-03-12T19:44:24.728Z,193.91
2023-03-12T19:45:24.836Z,195.45
2023-03-12T19:46:24.877Z,195.47
2023-03-12T19:47:24.939Z,196.16
2023-03-12T19:48:24.968Z,197.42
2023-03-12T19:49:25.027Z,198.46
2023-03-12T19:50:25.081Z,202.55
2023-03-12T19:52:25.217Z,197.69
2023-03-12T19:53:25.266Z,197.16
2023-03-12T19:54:25.331Z,198.01
2023-03-12T19:55:25.390Z,200.33
2023-03-12T19:56:25.473Z,198.35
2023-03-12T19:57:25.523Z,198.29
2023-03-12T19:58:25.584Z,196.50
2023-03-12T19:59:25.633Z,197.90
2023-03-12T20:00:25.696Z,197.47
2023-03-12T20:01:25.779Z,195.68
2023-03-12T20:02:25.955Z,199.75
2023-03-12T20:03:25.964Z,199.03
2023-03-12T20:04:25.980Z,202.26
2023-03-12T20:05:26.018Z,203.37
2023-03-12T20:06:26.065Z,202.54
2023-03-12T20:07:26.129Z,199.48
2023-03-12T20:08:26.190Z,199.38
2023-03-12T20:09:26.247Z,198.32
2023-03-12T20:10:26.287Z,199.10
2023-03-12T20:11:26.368Z,201.01
2023-03-12T20:12:26.434Z,199.50
2023-03-12T20:13:26.465Z,197.02
2023-03-12T20:14:26.536Z,196.71
2023-03-12T20:15:26.605Z,199.84
2023-03-12T20:16:26.711Z,202.68
2023-03-12T20:17:26.703Z,202.11
2023-03-12T20:18:26.787Z,203.34
2023-03-12T20:19:26.845Z,199.19
2023-03-12T20:20:26.902Z,202.90
2023-03-12T20:21:28.428Z,204.45
2023-03-12T20:22:27.078Z,203.30
2023-03-12T20:23:27.135Z,203.61
2023-03-12T20:24:27.257Z,202.54
2023-03-12T20:25:27.250Z,203.39
2023-03-12T20:26:27.321Z,199.37
2023-03-12T20:27:27.548Z,196.36
2023-03-12T20:28:27.470Z,203.42
2023-03-12T20:29:27.548Z,201.16
2023-03-12T20:30:27.591Z,201.82
2023-03-12T20:31:27.702Z,202.90
2023-03-12T20:32:27.731Z,204.25
2023-03-12T20:33:27.776Z,201.09
2023-03-12T20:34:27.823Z,201.60
2023-03-12T20:35:27.940Z,202.23
2023-03-12T20:36:27.944Z,197.24
2023-03-12T20:37:28.064Z,193.91
2023-03-12T20:38:28.089Z,192.94
2023-03-12T20:39:28.111Z,191.34
2023-03-12T20:40:28.195Z,188.40
2023-03-12T20:41:28.250Z,189.21
2023-03-12T20:42:28.334Z,188.64
2023-03-12T20:43:28.409Z,189.25
2023-03-12T20:44:28.418Z,189.83
2023-03-12T20:45:28.502Z,198.95
2023-03-12T20:46:28.720Z,201.48
2023-03-12T20:47:28.627Z,196.87
2023-03-12T20:48:28.716Z,198.67
2023-03-12T20:49:28.746Z,199.94
2023-03-12T20:51:28.925Z,205.25
2023-03-12T20:52:28.920Z,203.80
2023-03-12T20:53:28.968Z,202.87
2023-03-12T20:54:29.054Z,200.94
2023-03-12T20:55:29.105Z,202.31
2023-03-12T20:56:29.160Z,201.85
2023-03-12T20:57:29.223Z,200.68
2023-03-12T20:58:29.276Z,199.64
2023-03-12T20:59:29.324Z,201.92
2023-03-12T21:00:29.394Z,202.00
2023-03-12T21:01:29.559Z,203.76
2023-03-12T21:02:29.581Z,201.03
2023-03-12T21:03:29.556Z,201.36
2023-03-12T21:04:29.644Z,198.67
2023-03-12T21:05:29.705Z,201.31
2023-03-12T21:06:29.763Z,200.43
2023-03-12T21:07:29.808Z,198.78
2023-03-12T21:08:29.853Z,201.71
2023-03-12T21:09:29.927Z,199.65
2023-03-12T21:10:31.619Z,202.39
2023-03-12T21:11:30.060Z,201.94
2023-03-12T21:12:30.126Z,200.95
2023-03-12T21:13:30.171Z,201.26
2023-03-12T21:14:30.250Z,199.57
2023-03-12T21:15:30.281Z,201.49
2023-03-12T21:16:30.401Z,200.50
2023-03-12T21:17:30.399Z,199.37
2023-03-12T21:18:30.458Z,199.42
2023-03-12T21:19:30.510Z,201.54
2023-03-12T21:20:30.541Z,199.75
2023-03-12T21:21:30.609Z,198.09
2023-03-12T21:22:30.647Z,199.02
2023-03-12T21:23:30.845Z,200.25
2023-03-12T21:24:30.780Z,197.42
2023-03-12T21:25:30.859Z,198.57
2023-03-12T21:26:30.893Z,197.89
2023-03-12T21:27:41.184Z,200.06
2023-03-12T21:28:31.973Z,200.35
2023-03-12T21:29:30.935Z,200.78
2023-03-12T21:30:30.977Z,200.85
2023-03-12T21:31:30.915Z,201.31
2023-03-12T21:32:31.013Z,204.72
2023-03-12T21:33:30.932Z,202.31
2023-03-12T21:48:31.653Z,199.33
2023-03-12T21:49:31.715Z,197.23
2023-03-12T21:50:31.790Z,197.65
2023-03-12T21:51:31.817Z,199.50
2023-03-12T21:52:31.903Z,201.17
2023-03-12T21:53:31.909Z,200.05
2023-03-12T21:54:31.973Z,197.25
2023-03-12T21:55:32.028Z,197.75
2023-03-12T21:56:32.100Z,197.21
2023-03-12T21:57:32.130Z,194.66
2023-03-12T21:58:32.213Z,198.37
2023-03-12T21:59:32.372Z,199.15
2023-03-12T22:00:32.324Z,196.39
2023-03-12T22:01:32.456Z,197.92
2023-03-12T22:02:32.444Z,197.24
2023-03-12T22:03:32.527Z,197.85
2023-03-12T22:04:32.613Z,196.34
2023-03-12T22:05:32.665Z,198.13
2023-03-12T22:06:32.710Z,197.25
2023-03-12T22:07:32.771Z,195.40
2023-03-12T22:08:32.789Z,196.59
2023-03-12T22:09:32.850Z,196.38
2023-03-12T22:10:32.935Z,197.40
2023-03-12T22:11:32.985Z,198.62
2023-03-12T22:12:33.046Z,197.35
2023-03-12T22:13:33.137Z,200.95
2023-03-12T22:14:33.176Z,201.33
2023-03-12T22:15:33.235Z,201.72
2023-03-12T22:16:33.359Z,203.11
2023-03-12T22:17:33.326Z,199.61
2023-03-12T22:18:33.412Z,198.74
2023-03-12T22:19:33.455Z,198.81
2023-03-12T22:20:33.508Z,199.25
2023-03-12T22:21:33.562Z,196.18
2023-03-12T22:22:33.646Z,196.70
2023-03-12T22:23:33.697Z,197.55
2023-03-12T22:24:33.732Z,199.18
2023-03-12T22:25:33.810Z,196.17
2023-03-12T22:26:33.864Z,197.53
2023-03-12T22:27:33.922Z,199.29
2023-03-12T22:28:33.969Z,197.26
2023-03-12T22:29:34.021Z,194.16
2023-03-12T22:30:34.072Z,193.36
2023-03-12T22:31:34.259Z,194.61
2023-03-12T22:32:34.272Z,194.93
2023-03-12T22:33:34.228Z,196.18
2023-03-12T22:34:34.262Z,198.28
2023-03-12T22:35:34.370Z,195.81
2023-03-12T22:36:34.425Z,197.50
2023-03-12T22:37:34.466Z,196.50
2023-03-12T22:38:34.527Z,198.27
2023-03-12T22:39:34.592Z,194.54
2023-03-12T22:40:34.611Z,196.83
2023-03-12T22:41:34.685Z,194.09
2023-03-12T22:42:34.759Z,196.17
2023-03-12T22:43:34.809Z,195.13
2023-03-12T22:44:34.852Z,193.89
2023-03-12T22:45:34.910Z,192.70
2023-03-12T22:46:35.023Z,190.63
2023-03-12T22:47:35.081Z,194.06
2023-03-12T22:48:35.100Z,195.67
2023-03-12T22:49:35.138Z,196.84
2023-03-12T22:50:35.211Z,194.24
2023-03-12T22:51:35.266Z,193.41
2023-03-12T22:52:35.306Z,193.89
2023-03-12T22:53:35.352Z,191.99
2023-03-12T22:54:35.418Z,194.03
2023-03-12T22:55:35.456Z,193.10
2023-03-12T22:56:35.527Z,194.51
2023-03-12T22:57:35.609Z,194.57
2023-03-12T22:58:35.666Z,191.99
2023-03-12T22:59:35.719Z,195.17
2023-03-12T23:00:35.775Z,192.78
2023-03-12T23:01:35.850Z,193.63
2023-03-12T23:02:35.885Z,192.40
2023-03-12T23:03:35.969Z,194.71
2023-03-12T23:04:36.078Z,196.02
2023-03-12T23:05:36.066Z,193.61
2023-03-12T23:06:36.164Z,194.05
2023-03-12T23:07:36.230Z,196.15
2023-03-12T23:08:36.283Z,196.24
2023-03-12T23:09:36.299Z,193.83
2023-03-12T23:10:36.378Z,195.40
2023-03-12T23:11:36.410Z,191.38
2023-03-12T23:12:36.507Z,192.74
2023-03-12T23:13:36.545Z,191.66
2023-03-12T23:14:36.615Z,192.36
2023-03-12T23:15:41.101Z,191.67
2023-03-12T23:16:37.756Z,191.83
2023-03-12T23:17:36.654Z,191.69
2023-03-12T23:18:36.633Z,190.42
2023-03-12T23:19:36.643Z,192.24
2023-03-12T23:20:36.618Z,194.83
2023-03-12T23:21:36.637Z,190.04
2023-03-12T23:22:36.601Z,190.93
2023-03-12T23:23:36.603Z,190.96
2023-03-12T23:24:36.649Z,187.32
2023-03-12T23:25:36.735Z,190.06
2023-03-12T23:26:36.840Z,190.12
2023-03-12T23:27:36.849Z,191.22
2023-03-12T23:28:36.918Z,190.56
2023-03-12T23:29:36.959Z,191.34
2023-03-12T23:30:37.011Z,190.15
2023-03-12T23:31:37.165Z,190.86
2023-03-12T23:32:37.206Z,190.51
2023-03-12T23:33:37.221Z,190.74
2023-03-12T23:34:37.262Z,191.08
2023-03-12T23:35:37.346Z,190.41
2023-03-12T23:36:37.380Z,191.27
2023-03-12T23:37:37.437Z,192.12
2023-03-12T23:38:37.807Z,190.64
2023-03-12T23:39:53.465Z,188.96
2023-03-12T23:40:38.591Z,189.33
2023-03-12T23:41:37.555Z,189.77
2023-03-12T23:42:37.537Z,190.21
2023-03-12T23:43:37.572Z,190.70
2023-03-12T23:44:37.549Z,190.46
2023-03-12T23:45:37.539Z,190.42
2023-03-12T23:46:37.538Z,191.72
2023-03-12T23:47:37.528Z,189.36
2023-03-12T23:48:37.586Z,190.99
2023-03-12T23:49:37.645Z,189.48
2023-03-12T23:50:37.675Z,188.23
2023-03-12T23:51:37.714Z,192.01
2023-03-12T23:52:37.805Z,191.56
2023-03-12T23:53:37.858Z,191.62
2023-03-12T23:54:37.896Z,188.00
2023-03-12T23:55:37.945Z,188.42
2023-03-12T23:56:38.010Z,186.88
2023-03-12T23:57:38.081Z,185.83
2023-03-12T23:58:38.129Z,186.82
2023-03-12T23:59:38.196Z,187.76
